sensor_id;sensor_type;location;lat;lon;timestamp;P1;durP1;ratioP1;P2;durP2;ratioP2
1140;SDS011;559;48.628;8.924;2023-02-01T00:00:31;62.20;;;57.28;;
1140;SDS011;559;48.628;8.924;2023-02-01T00:03:00;61.55;;;56.72;;
1140;SDS011;559;48.628;8.924;2023-02-01T00:05:27;62.58;;;57.70;;
1140;SDS011;559;48.628;8.924;2023-02-01T00:07:53;67.93;;;63.03;;
1140;SDS011;559;48.628;8.924;2023-02-01T00:10:20;63.65;;;58.67;;
1140;SDS011;559;48.628;8.924;2023-02-01T00:12:46;63.20;;;58.20;;
1140;SDS011;559;48.628;8.924;2023-02-01T00:15:15;65.80;;;60.80;;
1140;SDS011;559;48.628;8.924;2023-02-01T00:17:41;67.78;;;62.72;;
1140;SDS011;559;48.628;8.924;2023-02-01T00:20:14;67.20;;;62.33;;
1140;SDS011;559;48.628;8.924;2023-02-01T00:22:40;65.53;;;60.67;;
1140;SDS011;559;48.628;8.924;2023-02-01T00:25:08;71.88;;;66.88;;
1140;SDS011;559;48.628;8.924;2023-02-01T00:27:46;64.72;;;59.85;;
1140;SDS011;559;48.628;8.924;2023-02-01T00:30:17;68.85;;;63.85;;
1140;SDS011;559;48.628;8.924;2023-02-01T00:32:44;65.45;;;60.70;;
1140;SDS011;559;48.628;8.924;2023-02-01T00:35:15;60.50;;;55.80;;
1140;SDS011;559;48.628;8.924;2023-02-01T00:37:42;61.35;;;56.75;;
1140;SDS011;559;48.628;8.924;2023-02-01T00:40:09;61.40;;;56.75;;
1140;SDS011;559;48.628;8.924;2023-02-01T00:42:36;59.53;;;54.83;;
1140;SDS011;559;48.628;8.924;2023-02-01T00:45:03;58.90;;;54.38;;
1140;SDS011;559;48.628;8.924;2023-02-01T00:47:35;57.60;;;53.20;;
1140;SDS011;559;48.628;8.924;2023-02-01T00:50:02;60.67;;;56.08;;
1140;SDS011;559;48.628;8.924;2023-02-01T00:52:30;57.50;;;53.00;;
1140;SDS011;559;48.628;8.924;2023-02-01T00:54:57;58.10;;;53.60;;
1140;SDS011;559;48.628;8.924;2023-02-01T00:57:23;61.40;;;56.90;;
1140;SDS011;559;48.628;8.924;2023-02-01T00:59:50;60.85;;;55.95;;
1140;SDS011;559;48.628;8.924;2023-02-01T01:02:16;55.85;;;51.55;;
1140;SDS011;559;48.628;8.924;2023-02-01T01:04:43;59.42;;;54.92;;
1140;SDS011;559;48.628;8.924;2023-02-01T01:07:09;58.58;;;54.22;;
1140;SDS011;559;48.628;8.924;2023-02-01T01:09:37;56.90;;;52.53;;
1140;SDS011;559;48.628;8.924;2023-02-01T01:12:04;58.03;;;53.53;;
1140;SDS011;559;48.628;8.924;2023-02-01T01:14:31;62.45;;;57.85;;
1140;SDS011;559;48.628;8.924;2023-02-01T01:16:59;59.08;;;54.58;;
1140;SDS011;559;48.628;8.924;2023-02-01T01:19:26;59.40;;;54.92;;
1140;SDS011;559;48.628;8.924;2023-02-01T01:21:55;61.63;;;57.13;;
1140;SDS011;559;48.628;8.924;2023-02-01T01:24:21;61.67;;;57.17;;
1140;SDS011;559;48.628;8.924;2023-02-01T01:26:49;60.63;;;56.22;;
1140;SDS011;559;48.628;8.924;2023-02-01T01:29:16;58.67;;;54.20;;
1140;SDS011;559;48.628;8.924;2023-02-01T01:31:42;57.90;;;53.40;;
1140;SDS011;559;48.628;8.924;2023-02-01T01:34:09;56.13;;;51.63;;
1140;SDS011;559;48.628;8.924;2023-02-01T01:36:35;54.50;;;50.05;;
1140;SDS011;559;48.628;8.924;2023-02-01T01:39:02;56.88;;;52.33;;
1140;SDS011;559;48.628;8.924;2023-02-01T01:41:29;58.50;;;54.05;;
1140;SDS011;559;48.628;8.924;2023-02-01T01:43:58;61.53;;;57.00;;
1140;SDS011;559;48.628;8.924;2023-02-01T01:46:27;63.15;;;58.45;;
1140;SDS011;559;48.628;8.924;2023-02-01T01:48:58;59.15;;;54.50;;
1140;SDS011;559;48.628;8.924;2023-02-01T01:51:28;57.30;;;52.70;;
1140;SDS011;559;48.628;8.924;2023-02-01T01:53:57;56.10;;;51.70;;
1140;SDS011;559;48.628;8.924;2023-02-01T01:56:26;55.45;;;51.08;;
1140;SDS011;559;48.628;8.924;2023-02-01T01:58:53;58.60;;;54.10;;
1140;SDS011;559;48.628;8.924;2023-02-01T02:01:22;58.97;;;54.35;;
1140;SDS011;559;48.628;8.924;2023-02-01T02:03:49;59.17;;;54.38;;
1140;SDS011;559;48.628;8.924;2023-02-01T02:06:17;58.00;;;53.50;;
1140;SDS011;559;48.628;8.924;2023-02-01T02:08:48;59.30;;;54.60;;
1140;SDS011;559;48.628;8.924;2023-02-01T02:11:15;60.03;;;55.53;;
1140;SDS011;559;48.628;8.924;2023-02-01T02:13:44;60.08;;;55.58;;
1140;SDS011;559;48.628;8.924;2023-02-01T02:16:18;60.45;;;55.95;;
1140;SDS011;559;48.628;8.924;2023-02-01T02:18:56;60.28;;;55.88;;
1140;SDS011;559;48.628;8.924;2023-02-01T02:21:33;60.28;;;55.78;;
1140;SDS011;559;48.628;8.924;2023-02-01T02:24:23;59.85;;;55.25;;
1140;SDS011;559;48.628;8.924;2023-02-01T02:29:55;60.10;;;55.50;;
1140;SDS011;559;48.628;8.924;2023-02-01T02:32:53;56.38;;;51.88;;
1140;SDS011;559;48.628;8.924;2023-02-01T02:35:42;57.40;;;52.90;;
1140;SDS011;559;48.628;8.924;2023-02-01T02:38:12;59.33;;;54.85;;
1140;SDS011;559;48.628;8.924;2023-02-01T02:40:45;58.83;;;54.35;;
1140;SDS011;559;48.628;8.924;2023-02-01T02:43:16;55.88;;;51.58;;
1140;SDS011;559;48.628;8.924;2023-02-01T02:46:05;57.33;;;52.80;;
1140;SDS011;559;48.628;8.924;2023-02-01T02:49:01;58.65;;;54.15;;
1140;SDS011;559;48.628;8.924;2023-02-01T02:51:31;59.83;;;55.22;;
1140;SDS011;559;48.628;8.924;2023-02-01T02:54:17;59.92;;;55.33;;
1140;SDS011;559;48.628;8.924;2023-02-01T02:57:03;57.03;;;52.47;;
1140;SDS011;559;48.628;8.924;2023-02-01T02:59:49;58.58;;;54.05;;
1140;SDS011;559;48.628;8.924;2023-02-01T03:02:34;56.22;;;52.03;;
1140;SDS011;559;48.628;8.924;2023-02-01T03:05:19;57.40;;;53.10;;
1140;SDS011;559;48.628;8.924;2023-02-01T03:07:52;57.20;;;52.95;;
1140;SDS011;559;48.628;8.924;2023-02-01T03:10:25;57.10;;;52.70;;
1140;SDS011;559;48.628;8.924;2023-02-01T03:12:58;60.40;;;55.80;;
1140;SDS011;559;48.628;8.924;2023-02-01T03:15:29;58.10;;;53.80;;
1140;SDS011;559;48.628;8.924;2023-02-01T03:18:00;60.15;;;55.55;;
1140;SDS011;559;48.628;8.924;2023-02-01T03:20:30;61.05;;;56.55;;
1140;SDS011;559;48.628;8.924;2023-02-01T03:22:58;60.08;;;55.58;;
1140;SDS011;559;48.628;8.924;2023-02-01T03:25:26;59.75;;;55.25;;
1140;SDS011;559;48.628;8.924;2023-02-01T03:27:56;58.50;;;54.20;;
1140;SDS011;559;48.628;8.924;2023-02-01T03:30:25;56.30;;;52.00;;
1140;SDS011;559;48.628;8.924;2023-02-01T03:32:54;57.83;;;53.42;;
1140;SDS011;559;48.628;8.924;2023-02-01T03:35:26;55.10;;;50.90;;
1140;SDS011;559;48.628;8.924;2023-02-01T03:37:59;56.70;;;52.30;;
1140;SDS011;559;48.628;8.924;2023-02-01T03:40:28;56.22;;;51.85;;
1140;SDS011;559;48.628;8.924;2023-02-01T03:42:57;56.03;;;51.83;;
1140;SDS011;559;48.628;8.924;2023-02-01T03:45:26;55.88;;;51.72;;
1140;SDS011;559;48.628;8.924;2023-02-01T03:47:54;56.00;;;51.63;;
1140;SDS011;559;48.628;8.924;2023-02-01T03:50:22;55.47;;;51.28;;
1140;SDS011;559;48.628;8.924;2023-02-01T03:52:51;54.55;;;50.35;;
1140;SDS011;559;48.628;8.924;2023-02-01T03:55:22;55.28;;;50.97;;
1140;SDS011;559;48.628;8.924;2023-02-01T03:57:53;54.17;;;50.08;;
1140;SDS011;559;48.628;8.924;2023-02-01T04:00:23;54.60;;;50.40;;
1140;SDS011;559;48.628;8.924;2023-02-01T04:02:50;55.78;;;51.42;;
1140;SDS011;559;48.628;8.924;2023-02-01T04:05:17;57.28;;;52.97;;
1140;SDS011;559;48.628;8.924;2023-02-01T04:07:44;59.65;;;55.25;;
1140;SDS011;559;48.628;8.924;2023-02-01T04:10:10;59.95;;;55.65;;
1140;SDS011;559;48.628;8.924;2023-02-01T04:12:39;61.03;;;56.63;;
1140;SDS011;559;48.628;8.924;2023-02-01T04:15:06;59.33;;;54.92;;
1140;SDS011;559;48.628;8.924;2023-02-01T04:17:33;58.50;;;54.20;;
1140;SDS011;559;48.628;8.924;2023-02-01T04:19:59;59.67;;;55.17;;
1140;SDS011;559;48.628;8.924;2023-02-01T04:22:26;62.90;;;58.28;;
1140;SDS011;559;48.628;8.924;2023-02-01T04:24:53;59.47;;;55.00;;
1140;SDS011;559;48.628;8.924;2023-02-01T04:27:20;56.60;;;52.30;;
1140;SDS011;559;48.628;8.924;2023-02-01T04:29:48;56.20;;;51.95;;
1140;SDS011;559;48.628;8.924;2023-02-01T04:32:15;56.78;;;52.47;;
1140;SDS011;559;48.628;8.924;2023-02-01T04:34:42;55.72;;;51.63;;
1140;SDS011;559;48.628;8.924;2023-02-01T04:37:08;53.58;;;49.47;;
1140;SDS011;559;48.628;8.924;2023-02-01T04:39:35;54.58;;;50.38;;
1140;SDS011;559;48.628;8.924;2023-02-01T04:42:01;55.20;;;51.00;;
1140;SDS011;559;48.628;8.924;2023-02-01T04:44:28;55.10;;;51.00;;
1140;SDS011;559;48.628;8.924;2023-02-01T04:46:56;56.20;;;52.15;;
1140;SDS011;559;48.628;8.924;2023-02-01T04:49:23;56.63;;;52.53;;
1140;SDS011;559;48.628;8.924;2023-02-01T04:51:51;54.85;;;50.75;;
1140;SDS011;559;48.628;8.924;2023-02-01T04:54:18;54.22;;;50.05;;
1140;SDS011;559;48.628;8.924;2023-02-01T04:56:44;53.15;;;49.15;;
1140;SDS011;559;48.628;8.924;2023-02-01T04:59:11;54.42;;;50.47;;
1140;SDS011;559;48.628;8.924;2023-02-01T05:01:38;58.53;;;54.53;;
1140;SDS011;559;48.628;8.924;2023-02-01T05:04:06;60.05;;;55.85;;
1140;SDS011;559;48.628;8.924;2023-02-01T05:06:32;55.35;;;51.38;;
1140;SDS011;559;48.628;8.924;2023-02-01T05:08:59;56.63;;;52.65;;
1140;SDS011;559;48.628;8.924;2023-02-01T05:11:25;58.78;;;54.78;;
1140;SDS011;559;48.628;8.924;2023-02-01T05:14:10;58.72;;;54.63;;
1140;SDS011;559;48.628;8.924;2023-02-01T05:16:36;57.75;;;53.75;;
1140;SDS011;559;48.628;8.924;2023-02-01T05:19:03;57.95;;;54.05;;
1140;SDS011;559;48.628;8.924;2023-02-01T05:21:30;57.75;;;53.65;;
1140;SDS011;559;48.628;8.924;2023-02-01T05:23:57;56.80;;;52.90;;
1140;SDS011;559;48.628;8.924;2023-02-01T05:26:37;58.35;;;54.35;;
1140;SDS011;559;48.628;8.924;2023-02-01T05:29:04;56.92;;;53.03;;
1140;SDS011;559;48.628;8.924;2023-02-01T05:31:32;55.08;;;51.17;;
1140;SDS011;559;48.628;8.924;2023-02-01T05:33:58;57.33;;;53.33;;
1140;SDS011;559;48.628;8.924;2023-02-01T05:36:25;60.05;;;55.90;;
1140;SDS011;559;48.628;8.924;2023-02-01T05:38:53;59.83;;;55.67;;
1140;SDS011;559;48.628;8.924;2023-02-01T05:41:20;57.42;;;53.42;;
1140;SDS011;559;48.628;8.924;2023-02-01T05:43:46;60.97;;;56.70;;
1140;SDS011;559;48.628;8.924;2023-02-01T05:46:13;60.45;;;56.25;;
1140;SDS011;559;48.628;8.924;2023-02-01T05:48:39;59.30;;;55.10;;
1140;SDS011;559;48.628;8.924;2023-02-01T05:51:06;57.75;;;53.75;;
1140;SDS011;559;48.628;8.924;2023-02-01T05:53:33;58.58;;;54.38;;
1140;SDS011;559;48.628;8.924;2023-02-01T05:56:01;58.42;;;54.33;;
1140;SDS011;559;48.628;8.924;2023-02-01T05:58:27;59.13;;;55.13;;
1140;SDS011;559;48.628;8.924;2023-02-01T06:00:54;60.40;;;56.40;;
1140;SDS011;559;48.628;8.924;2023-02-01T06:03:21;65.43;;;61.22;;
1140;SDS011;559;48.628;8.924;2023-02-01T06:05:47;66.75;;;62.55;;
1140;SDS011;559;48.628;8.924;2023-02-01T06:08:14;62.50;;;58.40;;
1140;SDS011;559;48.628;8.924;2023-02-01T06:10:42;62.13;;;57.88;;
1140;SDS011;559;48.628;8.924;2023-02-01T06:13:10;61.10;;;56.85;;
1140;SDS011;559;48.628;8.924;2023-02-01T06:15:36;66.97;;;62.78;;
1140;SDS011;559;48.628;8.924;2023-02-01T06:18:03;63.75;;;59.55;;
1140;SDS011;559;48.628;8.924;2023-02-01T06:20:30;63.85;;;59.80;;
1140;SDS011;559;48.628;8.924;2023-02-01T06:22:56;64.00;;;59.92;;
1140;SDS011;559;48.628;8.924;2023-02-01T06:25:23;62.50;;;58.47;;
1140;SDS011;559;48.628;8.924;2023-02-01T06:27:49;63.20;;;59.20;;
1140;SDS011;559;48.628;8.924;2023-02-01T06:30:17;60.33;;;56.33;;
1140;SDS011;559;48.628;8.924;2023-02-01T06:32:44;67.03;;;62.72;;
1140;SDS011;559;48.628;8.924;2023-02-01T06:35:10;62.35;;;58.45;;
1140;SDS011;559;48.628;8.924;2023-02-01T06:37:41;59.47;;;55.67;;
1140;SDS011;559;48.628;8.924;2023-02-01T06:40:08;61.55;;;57.70;;
1140;SDS011;559;48.628;8.924;2023-02-01T06:42:35;62.65;;;58.75;;
1140;SDS011;559;48.628;8.924;2023-02-01T06:45:02;67.13;;;63.03;;
1140;SDS011;559;48.628;8.924;2023-02-01T06:47:30;63.58;;;59.78;;
1140;SDS011;559;48.628;8.924;2023-02-01T06:49:56;65.50;;;61.50;;
1140;SDS011;559;48.628;8.924;2023-02-01T06:52:23;65.75;;;61.80;;
1140;SDS011;559;48.628;8.924;2023-02-01T06:54:49;64.25;;;60.45;;
1140;SDS011;559;48.628;8.924;2023-02-01T06:57:16;66.55;;;62.65;;
1140;SDS011;559;48.628;8.924;2023-02-01T06:59:42;67.88;;;63.78;;
1140;SDS011;559;48.628;8.924;2023-02-01T07:02:09;66.63;;;62.72;;
1140;SDS011;559;48.628;8.924;2023-02-01T07:04:37;67.82;;;63.70;;
1140;SDS011;559;48.628;8.924;2023-02-01T07:07:04;67.85;;;63.83;;
1140;SDS011;559;48.628;8.924;2023-02-01T07:09:30;64.45;;;60.53;;
1140;SDS011;559;48.628;8.924;2023-02-01T07:11:57;63.70;;;59.60;;
1140;SDS011;559;48.628;8.924;2023-02-01T07:14:23;67.30;;;63.40;;
1140;SDS011;559;48.628;8.924;2023-02-01T07:16:50;68.65;;;64.55;;
1140;SDS011;559;48.628;8.924;2023-02-01T07:19:16;62.13;;;58.13;;
1140;SDS011;559;48.628;8.924;2023-02-01T07:21:44;62.40;;;58.40;;
1140;SDS011;559;48.628;8.924;2023-02-01T07:24:11;59.60;;;55.80;;
1140;SDS011;559;48.628;8.924;2023-02-01T07:26:39;61.63;;;57.67;;
1140;SDS011;559;48.628;8.924;2023-02-01T07:29:06;61.47;;;57.58;;
1140;SDS011;559;48.628;8.924;2023-02-01T07:31:32;60.50;;;56.60;;
1140;SDS011;559;48.628;8.924;2023-02-01T07:33:58;64.93;;;60.70;;
1140;SDS011;559;48.628;8.924;2023-02-01T07:36:25;62.30;;;58.30;;
1140;SDS011;559;48.628;8.924;2023-02-01T07:38:53;69.80;;;65.50;;
1140;SDS011;559;48.628;8.924;2023-02-01T07:41:20;63.15;;;59.15;;
1140;SDS011;559;48.628;8.924;2023-02-01T07:43:46;64.78;;;60.38;;
1140;SDS011;559;48.628;8.924;2023-02-01T07:46:13;63.05;;;59.03;;
1140;SDS011;559;48.628;8.924;2023-02-01T07:48:40;65.15;;;60.95;;
1140;SDS011;559;48.628;8.924;2023-02-01T07:51:08;62.50;;;58.60;;
1140;SDS011;559;48.628;8.924;2023-02-01T07:53:36;60.38;;;56.47;;
1140;SDS011;559;48.628;8.924;2023-02-01T07:56:08;58.10;;;54.50;;
1140;SDS011;559;48.628;8.924;2023-02-01T07:58:37;59.53;;;55.83;;
1140;SDS011;559;48.628;8.924;2023-02-01T08:01:03;58.13;;;54.33;;
1140;SDS011;559;48.628;8.924;2023-02-01T08:03:50;56.40;;;52.72;;
1140;SDS011;559;48.628;8.924;2023-02-01T08:06:17;56.92;;;53.38;;
1140;SDS011;559;48.628;8.924;2023-02-01T08:08:44;58.92;;;55.22;;
1140;SDS011;559;48.628;8.924;2023-02-01T08:11:13;55.75;;;52.15;;
1140;SDS011;559;48.628;8.924;2023-02-01T08:13:40;55.00;;;51.60;;
1140;SDS011;559;48.628;8.924;2023-02-01T08:16:07;56.20;;;52.20;;
1140;SDS011;559;48.628;8.924;2023-02-01T08:18:35;57.15;;;53.47;;
1140;SDS011;559;48.628;8.924;2023-02-01T08:21:03;52.75;;;49.38;;
1140;SDS011;559;48.628;8.924;2023-02-01T08:23:30;52.70;;;49.38;;
1140;SDS011;559;48.628;8.924;2023-02-01T08:26:03;52.97;;;49.67;;
1140;SDS011;559;48.628;8.924;2023-02-01T08:28:32;49.22;;;46.17;;
1140;SDS011;559;48.628;8.924;2023-02-01T08:30:58;49.88;;;46.47;;
1140;SDS011;559;48.628;8.924;2023-02-01T08:33:25;49.90;;;46.90;;
1140;SDS011;559;48.628;8.924;2023-02-01T08:35:51;50.97;;;47.53;;
1140;SDS011;559;48.628;8.924;2023-02-01T08:38:18;51.67;;;48.50;;
1140;SDS011;559;48.628;8.924;2023-02-01T08:40:44;50.67;;;47.70;;
1140;SDS011;559;48.628;8.924;2023-02-01T08:43:11;50.17;;;46.92;;
1140;SDS011;559;48.628;8.924;2023-02-01T08:45:40;48.80;;;45.88;;
1140;SDS011;559;48.628;8.924;2023-02-01T08:48:07;52.85;;;49.55;;
1140;SDS011;559;48.628;8.924;2023-02-01T08:50:33;50.15;;;47.22;;
1140;SDS011;559;48.628;8.924;2023-02-01T08:53:00;49.50;;;46.45;;
1140;SDS011;559;48.628;8.924;2023-02-01T08:55:26;49.60;;;46.50;;
1140;SDS011;559;48.628;8.924;2023-02-01T08:57:53;48.88;;;45.80;;
1140;SDS011;559;48.628;8.924;2023-02-01T09:00:19;50.47;;;47.25;;
1140;SDS011;559;48.628;8.924;2023-02-01T09:02:47;49.13;;;45.88;;
1140;SDS011;559;48.628;8.924;2023-02-01T09:05:14;48.78;;;45.92;;
1140;SDS011;559;48.628;8.924;2023-02-01T09:07:41;49.78;;;46.85;;
1140;SDS011;559;48.628;8.924;2023-02-01T09:10:08;48.50;;;45.50;;
1140;SDS011;559;48.628;8.924;2023-02-01T09:12:35;50.38;;;47.40;;
1140;SDS011;559;48.628;8.924;2023-02-01T09:15:03;49.78;;;46.60;;
1140;SDS011;559;48.628;8.924;2023-02-01T09:17:32;54.35;;;51.17;;
1140;SDS011;559;48.628;8.924;2023-02-01T09:20:00;52.70;;;49.60;;
1140;SDS011;559;48.628;8.924;2023-02-01T09:22:27;49.95;;;47.08;;
1140;SDS011;559;48.628;8.924;2023-02-01T09:24:53;50.22;;;47.03;;
1140;SDS011;559;48.628;8.924;2023-02-01T09:27:20;46.35;;;43.72;;
1140;SDS011;559;48.628;8.924;2023-02-01T09:29:46;47.28;;;44.58;;
1140;SDS011;559;48.628;8.924;2023-02-01T09:32:17;48.08;;;45.20;;
1140;SDS011;559;48.628;8.924;2023-02-01T09:34:43;44.95;;;42.15;;
1140;SDS011;559;48.628;8.924;2023-02-01T09:37:11;46.78;;;43.30;;
1140;SDS011;559;48.628;8.924;2023-02-01T09:39:38;44.13;;;41.63;;
1140;SDS011;559;48.628;8.924;2023-02-01T09:42:07;45.90;;;43.17;;
1140;SDS011;559;48.628;8.924;2023-02-01T09:44:48;45.95;;;43.15;;
1140;SDS011;559;48.628;8.924;2023-02-01T09:47:20;44.90;;;42.30;;
1140;SDS011;559;48.628;8.924;2023-02-01T09:49:50;48.13;;;44.65;;
1140;SDS011;559;48.628;8.924;2023-02-01T09:52:23;45.58;;;42.97;;
1140;SDS011;559;48.628;8.924;2023-02-01T09:54:53;44.97;;;42.10;;
1140;SDS011;559;48.628;8.924;2023-02-01T09:57:26;45.90;;;43.40;;
1140;SDS011;559;48.628;8.924;2023-02-01T09:59:57;44.90;;;42.20;;
1140;SDS011;559;48.628;8.924;2023-02-01T10:02:27;43.13;;;40.72;;
1140;SDS011;559;48.628;8.924;2023-02-01T10:04:55;43.30;;;40.70;;
1140;SDS011;559;48.628;8.924;2023-02-01T10:07:27;43.70;;;40.60;;
1140;SDS011;559;48.628;8.924;2023-02-01T10:10:01;42.80;;;40.50;;
1140;SDS011;559;48.628;8.924;2023-02-01T10:15:39;43.55;;;40.35;;
1140;SDS011;559;48.628;8.924;2023-02-01T10:18:21;42.67;;;40.22;;
1140;SDS011;559;48.628;8.924;2023-02-01T10:21:01;41.17;;;38.97;;
1140;SDS011;559;48.628;8.924;2023-02-01T10:23:38;42.75;;;40.30;;
1140;SDS011;559;48.628;8.924;2023-02-01T10:26:12;42.63;;;40.35;;
1140;SDS011;559;48.628;8.924;2023-02-01T10:28:44;43.90;;;41.45;;
1140;SDS011;559;48.628;8.924;2023-02-01T10:31:13;40.83;;;38.50;;
1140;SDS011;559;48.628;8.924;2023-02-01T10:33:41;41.70;;;39.15;;
1140;SDS011;559;48.628;8.924;2023-02-01T10:36:13;40.50;;;38.50;;
1140;SDS011;559;48.628;8.924;2023-02-01T10:38:45;40.28;;;38.40;;
1140;SDS011;559;48.628;8.924;2023-02-01T10:41:12;40.97;;;38.60;;
1140;SDS011;559;48.628;8.924;2023-02-01T10:43:40;40.47;;;38.45;;
1140;SDS011;559;48.628;8.924;2023-02-01T10:46:07;37.83;;;36.10;;
1140;SDS011;559;48.628;8.924;2023-02-01T10:48:34;37.13;;;35.45;;
1140;SDS011;559;48.628;8.924;2023-02-01T10:51:02;35.90;;;34.38;;
1140;SDS011;559;48.628;8.924;2023-02-01T10:53:33;35.30;;;33.90;;
1140;SDS011;559;48.628;8.924;2023-02-01T10:56:06;35.03;;;33.55;;
1140;SDS011;559;48.628;8.924;2023-02-01T10:58:34;35.53;;;33.80;;
1140;SDS011;559;48.628;8.924;2023-02-01T11:01:03;36.22;;;34.53;;
1140;SDS011;559;48.628;8.924;2023-02-01T11:03:33;34.92;;;33.42;;
1140;SDS011;559;48.628;8.924;2023-02-01T11:06:09;35.20;;;33.40;;
1140;SDS011;559;48.628;8.924;2023-02-01T11:08:43;34.25;;;32.15;;
1140;SDS011;559;48.628;8.924;2023-02-01T11:11:13;33.33;;;31.83;;
1140;SDS011;559;48.628;8.924;2023-02-01T11:13:40;32.70;;;30.95;;
1140;SDS011;559;48.628;8.924;2023-02-01T11:16:09;31.80;;;30.25;;
1140;SDS011;559;48.628;8.924;2023-02-01T11:18:38;33.67;;;32.00;;
1140;SDS011;559;48.628;8.924;2023-02-01T11:21:05;31.77;;;30.38;;
1140;SDS011;559;48.628;8.924;2023-02-01T11:23:32;30.75;;;29.60;;
1140;SDS011;559;48.628;8.924;2023-02-01T11:26:01;31.75;;;30.50;;
1140;SDS011;559;48.628;8.924;2023-02-01T11:28:37;31.50;;;29.88;;
1140;SDS011;559;48.628;8.924;2023-02-01T11:31:07;31.77;;;30.15;;
1140;SDS011;559;48.628;8.924;2023-02-01T11:33:36;32.80;;;31.30;;
1140;SDS011;559;48.628;8.924;2023-02-01T11:36:06;31.60;;;30.23;;
1140;SDS011;559;48.628;8.924;2023-02-01T11:38:34;29.90;;;28.58;;
1140;SDS011;559;48.628;8.924;2023-02-01T11:41:11;28.38;;;27.38;;
1140;SDS011;559;48.628;8.924;2023-02-01T11:43:39;29.48;;;28.08;;
1140;SDS011;559;48.628;8.924;2023-02-01T11:46:17;28.50;;;27.17;;
1140;SDS011;559;48.628;8.924;2023-02-01T11:48:49;28.13;;;27.02;;
1140;SDS011;559;48.628;8.924;2023-02-01T11:51:19;30.08;;;28.40;;
1140;SDS011;559;48.628;8.924;2023-02-01T11:53:58;28.15;;;27.00;;
1140;SDS011;559;48.628;8.924;2023-02-01T11:56:33;28.17;;;27.08;;
1140;SDS011;559;48.628;8.924;2023-02-01T11:59:08;28.02;;;26.63;;
1140;SDS011;559;48.628;8.924;2023-02-01T12:01:49;25.95;;;24.92;;
1140;SDS011;559;48.628;8.924;2023-02-01T12:07:14;26.95;;;25.63;;
1140;SDS011;559;48.628;8.924;2023-02-01T12:09:56;26.98;;;25.65;;
1140;SDS011;559;48.628;8.924;2023-02-01T12:12:31;25.15;;;24.25;;
1140;SDS011;559;48.628;8.924;2023-02-01T12:15:18;26.33;;;25.13;;
1140;SDS011;559;48.628;8.924;2023-02-01T12:18:01;28.20;;;26.85;;
1140;SDS011;559;48.628;8.924;2023-02-01T12:20:44;27.05;;;26.15;;
1140;SDS011;559;48.628;8.924;2023-02-01T12:23:23;25.20;;;23.38;;
1140;SDS011;559;48.628;8.924;2023-02-01T12:26:01;26.50;;;25.15;;
1140;SDS011;559;48.628;8.924;2023-02-01T12:28:47;24.13;;;22.92;;
1140;SDS011;559;48.628;8.924;2023-02-01T12:31:31;23.08;;;22.25;;
1140;SDS011;559;48.628;8.924;2023-02-01T12:37:16;25.23;;;23.35;;
1140;SDS011;559;48.628;8.924;2023-02-01T12:39:51;24.35;;;23.05;;
1140;SDS011;559;48.628;8.924;2023-02-01T12:42:24;24.45;;;23.75;;
1140;SDS011;559;48.628;8.924;2023-02-01T12:44:53;27.55;;;26.20;;
1140;SDS011;559;48.628;8.924;2023-02-01T12:47:24;26.52;;;25.45;;
1140;SDS011;559;48.628;8.924;2023-02-01T12:49:56;26.63;;;25.38;;
1140;SDS011;559;48.628;8.924;2023-02-01T12:52:27;25.77;;;24.65;;
1140;SDS011;559;48.628;8.924;2023-02-01T12:55:01;26.63;;;25.63;;
1140;SDS011;559;48.628;8.924;2023-02-01T12:57:34;28.60;;;27.27;;
1140;SDS011;559;48.628;8.924;2023-02-01T13:00:05;29.83;;;28.67;;
1140;SDS011;559;48.628;8.924;2023-02-01T13:02:40;28.73;;;27.45;;
1140;SDS011;559;48.628;8.924;2023-02-01T13:05:13;27.83;;;26.80;;
1140;SDS011;559;48.628;8.924;2023-02-01T13:07:43;28.40;;;27.20;;
1140;SDS011;559;48.628;8.924;2023-02-01T13:10:15;30.02;;;28.75;;
1140;SDS011;559;48.628;8.924;2023-02-01T13:12:44;31.13;;;29.48;;
1140;SDS011;559;48.628;8.924;2023-02-01T13:15:17;29.13;;;27.83;;
1140;SDS011;559;48.628;8.924;2023-02-01T13:17:48;33.13;;;31.48;;
1140;SDS011;559;48.628;8.924;2023-02-01T13:20:17;32.97;;;31.17;;
1140;SDS011;559;48.628;8.924;2023-02-01T13:22:48;35.10;;;33.28;;
1140;SDS011;559;48.628;8.924;2023-02-01T13:25:19;32.58;;;30.92;;
1140;SDS011;559;48.628;8.924;2023-02-01T13:27:53;33.65;;;31.70;;
1140;SDS011;559;48.628;8.924;2023-02-01T13:30:20;32.88;;;31.55;;
1140;SDS011;559;48.628;8.924;2023-02-01T13:32:55;37.10;;;34.92;;
1140;SDS011;559;48.628;8.924;2023-02-01T13:36:03;36.70;;;35.20;;
1140;SDS011;559;48.628;8.924;2023-02-01T13:39:02;36.45;;;34.70;;
1140;SDS011;559;48.628;8.924;2023-02-01T13:41:39;37.17;;;35.38;;
1140;SDS011;559;48.628;8.924;2023-02-01T13:44:10;38.33;;;35.95;;
1140;SDS011;559;48.628;8.924;2023-02-01T13:46:38;38.13;;;36.28;;
1140;SDS011;559;48.628;8.924;2023-02-01T13:49:13;39.42;;;37.10;;
1140;SDS011;559;48.628;8.924;2023-02-01T13:51:45;36.85;;;34.88;;
1140;SDS011;559;48.628;8.924;2023-02-01T13:54:23;36.30;;;34.80;;
1140;SDS011;559;48.628;8.924;2023-02-01T13:56:51;35.03;;;33.72;;
1140;SDS011;559;48.628;8.924;2023-02-01T13:59:47;34.50;;;32.80;;
1140;SDS011;559;48.628;8.924;2023-02-01T14:08:44;32.35;;;30.92;;
1140;SDS011;559;48.628;8.924;2023-02-01T14:11:40;33.13;;;31.73;;
1140;SDS011;559;48.628;8.924;2023-02-01T14:20:07;33.95;;;32.35;;
1140;SDS011;559;48.628;8.924;2023-02-01T14:23:17;32.85;;;31.52;;
1140;SDS011;559;48.628;8.924;2023-02-01T14:25:48;33.75;;;32.25;;
1140;SDS011;559;48.628;8.924;2023-02-01T14:28:43;33.08;;;31.60;;
1140;SDS011;559;48.628;8.924;2023-02-01T14:31:25;32.58;;;31.00;;
1140;SDS011;559;48.628;8.924;2023-02-01T14:34:00;32.97;;;31.50;;
1140;SDS011;559;48.628;8.924;2023-02-01T14:36:38;32.92;;;31.73;;
1140;SDS011;559;48.628;8.924;2023-02-01T14:39:17;32.17;;;30.83;;
1140;SDS011;559;48.628;8.924;2023-02-01T14:41:47;32.85;;;31.40;;
1140;SDS011;559;48.628;8.924;2023-02-01T14:44:24;33.53;;;31.95;;
1140;SDS011;559;48.628;8.924;2023-02-01T14:53:06;32.83;;;31.17;;
1140;SDS011;559;48.628;8.924;2023-02-01T14:55:40;31.27;;;30.10;;
1140;SDS011;559;48.628;8.924;2023-02-01T14:58:13;32.22;;;30.80;;
1140;SDS011;559;48.628;8.924;2023-02-01T15:00:46;31.45;;;30.15;;
1140;SDS011;559;48.628;8.924;2023-02-01T15:03:22;32.35;;;31.10;;
1140;SDS011;559;48.628;8.924;2023-02-01T15:05:58;34.08;;;32.83;;
1140;SDS011;559;48.628;8.924;2023-02-01T15:08:27;34.10;;;32.63;;
1140;SDS011;559;48.628;8.924;2023-02-01T15:10:56;35.08;;;33.60;;
1140;SDS011;559;48.628;8.924;2023-02-01T15:13:26;35.25;;;33.50;;
1140;SDS011;559;48.628;8.924;2023-02-01T15:16:03;35.30;;;33.70;;
1140;SDS011;559;48.628;8.924;2023-02-01T15:18:31;34.50;;;33.25;;
1140;SDS011;559;48.628;8.924;2023-02-01T15:20:58;35.05;;;33.25;;
1140;SDS011;559;48.628;8.924;2023-02-01T15:23:27;40.88;;;38.58;;
1140;SDS011;559;48.628;8.924;2023-02-01T15:25:53;36.00;;;34.15;;
1140;SDS011;559;48.628;8.924;2023-02-01T15:28:21;36.53;;;34.70;;
1140;SDS011;559;48.628;8.924;2023-02-01T15:30:53;36.85;;;34.95;;
1140;SDS011;559;48.628;8.924;2023-02-01T15:33:21;35.45;;;33.88;;
1140;SDS011;559;48.628;8.924;2023-02-01T15:35:48;37.67;;;35.95;;
1140;SDS011;559;48.628;8.924;2023-02-01T15:38:19;37.70;;;35.88;;
1140;SDS011;559;48.628;8.924;2023-02-01T15:40:54;37.13;;;35.60;;
1140;SDS011;559;48.628;8.924;2023-02-01T15:43:21;37.63;;;35.85;;
1140;SDS011;559;48.628;8.924;2023-02-01T15:45:48;38.50;;;36.50;;
1140;SDS011;559;48.628;8.924;2023-02-01T15:48:19;39.97;;;38.15;;
1140;SDS011;559;48.628;8.924;2023-02-01T15:50:48;39.70;;;38.00;;